Time;durP1;ratioP1;P1;durP2;ratioP2;P2;SDS_P1;SDS_P2;PMS_P1;PMS_P2;Temp;Humidity;BMP_temperature;BMP_pressure;BME280_temperature;BME280_humidity;BME280_pressure;Samples;Min_cycle;Max_cycle;Signal;HPM_P1;HPM_P2
2022/02/17 00:01:45;;;;;;;28.35;5.25;;;10.10;99.90;;;;;;5054021;28;20037;-77
2022/02/17 00:04:11;;;;;;;22.92;4.78;;;10.20;99.90;;;;;;5054278;28;20051;-77
2022/02/17 00:06:36;;;;;;;22.92;3.78;;;10.10;99.90;;;;;;5054127;28;20183;-77
2022/02/17 00:09:02;;;;;;;23.60;4.82;;;10.20;99.90;;;;;;5054079;28;20409;-77
2022/02/17 00:11:28;;;;;;;16.73;3.85;;;10.20;99.90;;;;;;5053853;28;20383;-77
2022/02/17 00:13:53;;;;;;;21.35;4.07;;;10.20;99.90;;;;;;5054075;28;20036;-77
2022/02/17 00:16:20;;;;;;;22.17;5.75;;;10.20;99.90;;;;;;5054085;28;20040;-76
2022/02/17 00:18:45;;;;;;;20.80;5.07;;;10.20;99.90;;;;;;5053894;28;20044;-77
2022/02/17 00:21:11;;;;;;;14.32;3.40;;;10.20;99.90;;;;;;5053758;28;20050;-76
2022/02/17 00:23:36;;;;;;;17.75;4.80;;;10.30;99.90;;;;;;5054412;28;20063;-76
2022/02/17 00:26:02;;;;;;;16.70;4.05;;;10.30;99.90;;;;;;5053928;28;20036;-76
2022/02/17 00:28:28;;;;;;;20.30;3.75;;;10.50;99.90;;;;;;5054084;28;20029;-77
2022/02/17 00:30:53;;;;;;;18.13;4.45;;;10.40;99.90;;;;;;5037128;28;20493;-76
2022/02/17 00:33:19;;;;;;;20.95;4.38;;;10.40;99.90;;;;;;5053890;28;20043;-76
2022/02/17 00:35:45;;;;;;;23.38;4.88;;;10.40;99.90;;;;;;5052895;28;20481;-77
2022/02/17 00:38:11;;;;;;;21.65;5.82;;;10.40;99.90;;;;;;5053805;28;20097;-77
2022/02/17 00:40:36;;;;;;;17.95;5.18;;;10.40;99.90;;;;;;5053633;28;20051;-77
2022/02/17 00:43:02;;;;;;;17.02;4.40;;;10.50;99.90;;;;;;5053479;28;20071;-77
2022/02/17 00:45:27;;;;;;;19.23;4.32;;;10.40;99.90;;;;;;5053672;28;20087;-76
2022/02/17 00:47:53;;;;;;;26.63;4.85;;;10.40;99.90;;;;;;5053648;28;20040;-76
2022/02/17 00:50:19;;;;;;;20.75;4.43;;;10.40;99.90;;;;;;5053656;28;20036;-77
2022/02/17 00:52:44;;;;;;;21.45;5.45;;;10.40;99.90;;;;;;5053410;28;20028;-76
2022/02/17 00:55:10;;;;;;;21.33;4.47;;;10.50;99.90;;;;;;5053755;28;20123;-76
2022/02/17 00:57:35;;;;;;;20.65;5.13;;;10.40;99.90;;;;;;5053598;28;20064;-77
2022/02/17 01:00:03;;;;;;;21.70;5.20;;;10.40;99.90;;;;;;5053823;28;20552;-77
2022/02/17 01:02:28;;;;;;;22.25;4.75;;;10.40;99.90;;;;;;5053298;28;20049;-77
2022/02/17 01:04:54;;;;;;;28.38;5.45;;;10.40;99.90;;;;;;5053504;28;20051;-77
2022/02/17 01:07:19;;;;;;;25.50;5.97;;;10.30;99.90;;;;;;5037021;28;20402;-77
2022/02/17 01:09:45;;;;;;;25.27;5.45;;;10.30;99.90;;;;;;5053503;28;20041;-77
2022/02/17 01:12:10;;;;;;;27.10;6.10;;;10.30;99.90;;;;;;5053170;28;20135;-77
2022/02/17 01:14:36;;;;;;;23.63;5.75;;;10.20;99.90;;;;;;5053818;28;20036;-77
2022/02/17 01:17:02;;;;;;;21.67;5.97;;;10.30;99.90;;;;;;5053664;28;20050;-76
2022/02/17 01:19:28;;;;;;;26.75;5.47;;;10.30;99.90;;;;;;5053169;28;20036;-77
2022/02/17 01:21:53;;;;;;;23.30;5.20;;;10.30;99.50;;;;;;5053059;28;20075;-77
2022/02/17 01:24:20;;;;;;;22.83;5.05;;;10.20;99.40;;;;;;5053382;28;20482;-77
2022/02/17 01:26:45;;;;;;;21.48;4.72;;;10.10;99.10;;;;;;5053212;28;20044;-77
2022/02/17 01:29:11;;;;;;;21.30;4.82;;;10.10;98.60;;;;;;5053235;28;20525;-77
2022/02/17 01:31:37;;;;;;;16.17;3.70;;;10.10;97.50;;;;;;5053310;28;20029;-77
2022/02/17 01:34:02;;;;;;;21.38;4.63;;;10.10;96.50;;;;;;5053259;28;20486;-77
2022/02/17 01:36:28;;;;;;;17.35;4.90;;;10.10;96.50;;;;;;5053383;28;20037;-77
2022/02/17 01:38:55;;;;;;;19.20;4.45;;;10.00;95.90;;;;;;5053677;28;20037;-77
2022/02/17 01:41:21;;;;;;;18.67;3.70;;;10.00;96.40;;;;;;5052830;28;20679;-77
2022/02/17 01:43:49;;;;;;;13.32;3.63;;;9.90;96.00;;;;;;5053196;28;20032;-77
2022/02/17 01:46:15;;;;;;;11.40;3.25;;;9.90;95.80;;;;;;5036932;28;20037;-77
2022/02/17 01:48:40;;;;;;;22.20;5.35;;;9.90;95.80;;;;;;5056898;28;20107;-77
2022/02/17 01:51:06;;;;;;;16.88;4.38;;;9.80;95.20;;;;;;5056595;28;20029;-77
2022/02/17 01:53:32;;;;;;;16.90;4.50;;;9.90;95.70;;;;;;5040464;28;20136;-77
2022/02/17 01:55:59;;;;;;;19.50;4.28;;;9.80;96.20;;;;;;5040302;28;20048;-76
2022/02/17 01:58:26;;;;;;;18.95;4.68;;;9.70;96.80;;;;;;5057364;28;20432;-77
2022/02/17 02:00:52;;;;;;;20.95;5.15;;;9.70;97.70;;;;;;5056964;28;20525;-77
2022/02/17 02:03:18;;;;;;;20.00;4.47;;;9.70;97.20;;;;;;5056756;28;20044;-77
2022/02/17 02:05:43;;;;;;;22.63;6.13;;;9.70;98.10;;;;;;5074737;28;20112;-77
2022/02/17 02:08:10;;;;;;;26.33;6.97;;;9.70;97.30;;;;;;5040146;28;20478;-77
2022/02/17 02:10:36;;;;;;;34.05;6.20;;;9.70;96.50;;;;;;5074501;28;20036;-77
2022/02/17 02:13:02;;;;;;;24.65;6.63;;;9.70;96.10;;;;;;5056574;28;20041;-77
2022/02/17 02:15:46;;;;;;;21.13;6.13;;;9.70;96.40;;;;;;5075070;28;20036;-77
2022/02/17 02:18:11;;;;;;;19.60;4.90;;;9.70;95.80;;;;;;5057619;28;20115;-77
2022/02/17 02:20:46;;;;;;;17.73;5.00;;;9.60;96.00;;;;;;5074577;28;20560;-77
2022/02/17 02:23:11;;;;;;;28.35;5.40;;;9.60;95.20;;;;;;5074214;28;20033;-77
2022/02/17 02:25:38;;;;;;;21.95;5.97;;;9.50;96.20;;;;;;5074181;28;20111;-76
2022/02/17 02:28:03;;;;;;;20.92;5.15;;;9.50;95.30;;;;;;5074273;28;20055;-77
2022/02/17 02:30:29;;;;;;;25.48;5.05;;;9.50;95.20;;;;;;5056048;28;20041;-77
2022/02/17 02:32:55;;;;;;;23.65;5.30;;;9.40;95.90;;;;;;5039202;28;20051;-77
2022/02/17 02:35:21;;;;;;;28.02;5.20;;;9.30;96.20;;;;;;5074178;28;20037;-77
2022/02/17 02:37:46;;;;;;;24.77;5.55;;;9.30;95.80;;;;;;5039605;28;20112;-77
2022/02/17 02:40:12;;;;;;;22.50;5.88;;;9.40;96.30;;;;;;5073812;28;20048;-77
2022/02/17 02:42:38;;;;;;;29.33;5.55;;;9.30;97.40;;;;;;5055910;28;20051;-77
2022/02/17 02:45:04;;;;;;;23.42;5.70;;;9.20;98.70;;;;;;5055701;28;20505;-77
2022/02/17 02:47:29;;;;;;;25.55;6.05;;;9.20;98.60;;;;;;5055785;28;20037;-77
2022/02/17 02:49:55;;;;;;;28.10;6.80;;;9.10;99.40;;;;;;5055693;28;20078;-77
2022/02/17 02:52:20;;;;;;;24.17;6.35;;;9.10;99.00;;;;;;5055656;28;20036;-77
2022/02/17 02:54:46;;;;;;;20.30;5.63;;;9.10;99.00;;;;;;5073561;28;20046;-77
2022/02/17 02:57:11;;;;;;;29.70;5.53;;;9.10;98.70;;;;;;5055556;28;20079;-77
2022/02/17 02:59:41;;;;;;;27.35;5.93;;;9.20;98.90;;;;;;5072394;28;20036;-76
2022/02/17 03:02:07;;;;;;;26.88;8.32;;;9.20;99.10;;;;;;5073242;28;20044;-77
2022/02/17 03:04:32;;;;;;;21.90;5.40;;;9.10;99.10;;;;;;5073330;28;20094;-77
2022/02/17 03:06:58;;;;;;;21.70;5.82;;;9.10;98.20;;;;;;5038898;28;20041;-77
2022/02/17 03:09:23;;;;;;;26.73;5.57;;;9.20;97.90;;;;;;5055308;28;20130;-77
2022/02/17 03:11:49;;;;;;;30.25;7.03;;;9.20;98.00;;;;;;5072925;28;20041;-77
2022/02/17 03:14:14;;;;;;;24.13;6.05;;;9.10;97.60;;;;;;5073406;28;20385;-77
2022/02/17 03:16:40;;;;;;;23.48;5.93;;;9.20;96.70;;;;;;5073145;28;20044;-77
2022/02/17 03:19:07;;;;;;;24.38;5.05;;;9.10;96.40;;;;;;5096460;22;20119;-70
2022/02/17 03:21:33;;;;;;;12.90;5.35;;;9.10;97.20;;;;;;5072863;28;20040;-71
2022/02/17 03:23:59;;;;;;;21.85;4.55;;;9.10;95.60;;;;;;5073500;28;20459;-71
2022/02/17 03:26:24;;;;;;;22.80;5.82;;;9.20;95.60;;;;;;5072946;28;20457;-71
2022/02/17 03:28:50;;;;;;;25.15;5.47;;;9.20;95.00;;;;;;5072872;28;20040;-71
2022/02/17 03:31:15;;;;;;;25.73;4.72;;;9.30;95.10;;;;;;5073243;28;20073;-71
2022/02/17 03:33:41;;;;;;;21.75;5.13;;;9.20;95.70;;;;;;5057178;28;20044;-71
2022/02/17 03:36:06;;;;;;;29.83;5.97;;;9.20;95.50;;;;;;5073354;28;20049;-70
2022/02/17 03:38:32;;;;;;;23.23;5.60;;;9.20;95.20;;;;;;5073431;28;20407;-71
2022/02/17 03:40:58;;;;;;;30.38;6.28;;;9.20;94.40;;;;;;5072493;28;20083;-71
2022/02/17 03:43:23;;;;;;;24.02;5.00;;;9.20;94.70;;;;;;5073717;28;20497;-70
2022/02/17 03:45:49;;;;;;;22.30;4.90;;;9.10;95.30;;;;;;5074088;28;20417;-71
2022/02/17 03:48:14;;;;;;;23.40;5.85;;;9.10;94.80;;;;;;5074810;28;20039;-71
2022/02/17 03:50:42;;;;;;;24.45;5.10;;;9.10;95.00;;;;;;5072468;28;20052;-71
2022/02/17 03:53:08;;;;;;;26.35;5.03;;;9.10;95.40;;;;;;5073835;28;20036;-71
2022/02/17 03:55:33;;;;;;;24.67;5.40;;;9.10;95.10;;;;;;5073092;28;20042;-70
2022/02/17 03:57:59;;;;;;;22.17;5.13;;;9.10;95.30;;;;;;5074104;28;20072;-70
2022/02/17 04:00:25;;;;;;;20.42;5.20;;;9.10;95.00;;;;;;5072959;28;20037;-70
2022/02/17 04:02:52;;;;;;;22.35;5.50;;;9.10;95.00;;;;;;5072931;28;20123;-70
2022/02/17 04:05:18;;;;;;;26.98;5.25;;;9.00;95.60;;;;;;5072290;28;20037;-71
2022/02/17 04:07:43;;;;;;;21.45;5.43;;;9.00;96.20;;;;;;5072957;28;20036;-70
2022/02/17 04:10:09;;;;;;;26.48;5.90;;;9.00;96.10;;;;;;5072791;28;20040;-71
2022/02/17 04:12:35;;;;;;;20.48;5.63;;;8.90;96.30;;;;;;5072680;28;20097;-71
2022/02/17 04:15:00;;;;;;;20.70;6.10;;;9.10;95.00;;;;;;5073314;28;20063;-71
2022/02/17 04:17:26;;;;;;;31.83;5.25;;;9.00;95.40;;;;;;5071110;28;20085;-71
2022/02/17 04:19:52;;;;;;;28.55;6.07;;;9.00;95.20;;;;;;5072137;28;20123;-71
2022/02/17 04:22:18;;;;;;;23.30;5.60;;;9.00;95.00;;;;;;5055303;28;20044;-70
2022/02/17 04:24:44;;;;;;;36.92;6.97;;;9.00;94.90;;;;;;5073385;28;20521;-70
2022/02/17 04:27:09;;;;;;;20.85;4.57;;;8.90;95.60;;;;;;5072482;28;20076;-71
2022/02/17 04:29:35;;;;;;;22.67;4.90;;;9.00;95.50;;;;;;5071241;28;20066;-71
2022/02/17 04:32:01;;;;;;;29.58;6.07;;;8.90;95.70;;;;;;5073241;28;20033;-71
2022/02/17 04:34:27;;;;;;;19.45;4.93;;;8.90;95.70;;;;;;5074120;28;20051;-70
2022/02/17 04:36:53;;;;;;;19.50;5.32;;;8.90;96.30;;;;;;5073469;28;20048;-70
2022/02/17 04:39:18;;;;;;;17.45;4.90;;;8.90;95.90;;;;;;5072116;28;20123;-69
2022/02/17 04:44:28;;;;;;;18.30;5.35;;;8.90;96.40;;;;;;5073574;28;20055;-70
2022/02/17 04:46:54;;;;;;;19.05;5.35;;;8.90;96.70;;;;;;5073247;28;20042;-71
2022/02/17 04:49:19;;;;;;;27.50;5.63;;;8.90;96.50;;;;;;5073223;28;20044;-71
2022/02/17 04:51:45;;;;;;;18.92;5.32;;;8.90;96.60;;;;;;5072770;28;20032;-71
2022/02/17 04:54:10;;;;;;;23.30;5.63;;;8.80;96.80;;;;;;5073248;28;20123;-71
2022/02/17 04:56:36;;;;;;;19.52;4.15;;;8.80;97.10;;;;;;5072017;28;20151;-71
2022/02/17 04:59:02;;;;;;;27.85;5.20;;;8.80;96.70;;;;;;5069589;28;20041;-70
2022/02/17 05:01:27;;;;;;;16.27;4.57;;;8.80;96.20;;;;;;5067781;28;20037;-70
2022/02/17 05:03:53;;;;;;;30.55;5.90;;;8.80;96.80;;;;;;5064728;28;20033;-70
2022/02/17 05:06:19;;;;;;;26.88;6.53;;;8.80;96.80;;;;;;5072920;28;20082;-70
2022/02/17 05:08:44;;;;;;;26.63;4.95;;;8.80;96.60;;;;;;5066376;28;20036;-70
2022/02/17 05:11:10;;;;;;;30.35;5.60;;;8.70;96.50;;;;;;5063049;28;20110;-70
2022/02/17 05:13:35;;;;;;;17.02;4.63;;;8.70;96.70;;;;;;5073451;28;20549;-70
2022/02/17 05:16:01;;;;;;;25.85;5.80;;;8.70;96.40;;;;;;5073367;28;20072;-70
2022/02/17 05:18:26;;;;;;;21.83;5.97;;;8.70;96.80;;;;;;5072828;28;20044;-70
2022/02/17 05:20:52;;;;;;;29.23;6.85;;;8.70;96.50;;;;;;5072958;28;20456;-70
2022/02/17 05:23:17;;;;;;;28.40;6.75;;;8.70;96.80;;;;;;5068131;28;20040;-70
2022/02/17 05:25:47;;;;;;;22.88;5.93;;;8.70;96.30;;;;;;5075410;28;20039;-69
2022/02/17 05:28:12;;;;;;;23.27;5.90;;;8.80;96.00;;;;;;5076211;28;20040;-70
2022/02/17 05:30:40;;;;;;;21.35;5.28;;;8.70;96.60;;;;;;5075929;28;20032;-70
2022/02/17 05:33:12;;;;;;;22.23;5.10;;;8.70;96.80;;;;;;5075804;28;20037;-70
2022/02/17 05:35:38;;;;;;;17.77;4.47;;;8.70;96.50;;;;;;5075986;28;20449;-70
2022/02/17 05:38:04;;;;;;;26.85;4.95;;;8.70;96.50;;;;;;5076271;28;20048;-71
2022/02/17 05:40:31;;;;;;;25.65;4.75;;;8.70;96.30;;;;;;5074675;28;20128;-70
2022/02/17 05:42:57;;;;;;;19.65;4.30;;;8.70;96.40;;;;;;5076037;28;20028;-71
2022/02/17 05:45:23;;;;;;;16.20;3.85;;;8.80;95.80;;;;;;5067023;28;20056;-70
2022/02/17 05:47:48;;;;;;;23.58;6.50;;;8.70;96.40;;;;;;5076306;28;20040;-70
2022/02/17 05:50:14;;;;;;;22.88;5.38;;;8.70;96.10;;;;;;5076228;28;20135;-70
2022/02/17 05:52:40;;;;;;;21.10;4.68;;;8.70;96.30;;;;;;5076034;28;20667;-70
2022/02/17 05:55:06;;;;;;;22.05;4.90;;;8.70;96.10;;;;;;5075224;28;20090;-70
2022/02/17 05:57:31;;;;;;;23.50;5.30;;;8.70;96.20;;;;;;5074976;28;20049;-71
2022/02/17 05:59:58;;;;;;;19.77;5.18;;;8.70;96.10;;;;;;5076012;28;20089;-70
2022/02/17 06:02:25;;;;;;;25.10;5.90;;;8.70;96.20;;;;;;5074152;28;20564;-70
2022/02/17 06:04:51;;;;;;;22.95;5.22;;;8.70;96.30;;;;;;5075368;28;20055;-70
2022/02/17 06:07:17;;;;;;;16.75;4.18;;;8.70;96.50;;;;;;5075875;28;20040;-70
2022/02/17 06:09:43;;;;;;;21.23;4.72;;;8.70;96.50;;;;;;5075575;28;20516;-70
2022/02/17 06:12:09;;;;;;;28.13;5.32;;;8.70;96.40;;;;;;5075057;28;20409;-70
2022/02/17 06:14:35;;;;;;;27.20;5.43;;;8.70;96.90;;;;;;5075659;28;20040;-70
2022/02/17 06:17:01;;;;;;;28.40;4.72;;;8.70;97.00;;;;;;5075561;28;20460;-70
2022/02/17 06:19:27;;;;;;;26.98;6.32;;;8.80;96.40;;;;;;5075082;28;20094;-70
2022/02/17 06:21:52;;;;;;;22.80;5.07;;;8.70;96.40;;;;;;5075178;28;20072;-70
2022/02/17 06:24:18;;;;;;;18.80;5.53;;;8.70;96.70;;;;;;5075196;28;20068;-70
2022/02/17 06:26:43;;;;;;;18.13;4.80;;;8.70;96.40;;;;;;5075319;28;20120;-70
2022/02/17 06:29:09;;;;;;;29.73;5.22;;;8.70;96.40;;;;;;5075450;28;20464;-69
2022/02/17 06:31:34;;;;;;;21.27;5.43;;;8.60;96.50;;;;;;5074915;28;20040;-70
2022/02/17 06:34:00;;;;;;;21.65;5.63;;;8.60;96.50;;;;;;5073600;28;20042;-70
2022/02/17 06:36:26;;;;;;;22.13;5.75;;;8.60;96.40;;;;;;5067161;28;20068;-70
2022/02/17 06:38:52;;;;;;;27.60;4.75;;;8.60;96.40;;;;;;5074919;28;20453;-70
2022/02/17 06:41:21;;;;;;;16.30;4.05;;;8.60;95.90;;;;;;5073551;28;20040;-70
2022/02/17 06:43:47;;;;;;;24.27;4.63;;;8.50;96.40;;;;;;5074858;28;20093;-70
2022/02/17 06:46:13;;;;;;;25.17;5.28;;;8.60;96.40;;;;;;5073191;28;20037;-71
2022/02/17 06:48:38;;;;;;;16.40;4.30;;;8.50;96.70;;;;;;5073028;28;20116;-70
2022/02/17 06:51:04;;;;;;;18.17;4.78;;;8.50;97.40;;;;;;5073795;28;20044;-70
2022/02/17 06:53:29;;;;;;;22.50;4.55;;;8.60;95.90;;;;;;5075224;28;20032;-71
2022/02/17 06:55:55;;;;;;;22.23;5.30;;;8.60;95.60;;;;;;5075565;28;20036;-70
2022/02/17 06:58:20;;;;;;;23.05;4.57;;;8.60;95.60;;;;;;5075125;28;20040;-70
2022/02/17 07:00:47;;;;;;;15.32;4.75;;;8.50;95.80;;;;;;5074657;28;20094;-71
2022/02/17 07:03:13;;;;;;;28.90;5.60;;;8.60;95.80;;;;;;5075021;28;20048;-70
2022/02/17 07:05:38;;;;;;;17.80;4.30;;;8.60;95.90;;;;;;5073498;28;20037;-70
2022/02/17 07:08:04;;;;;;;22.70;5.40;;;8.50;96.40;;;;;;5073676;28;20042;-70
2022/02/17 07:13:14;;;;;;;21.25;4.43;;;8.40;96.70;;;;;;5074750;28;20103;-71
2022/02/17 07:15:40;;;;;;;19.52;4.57;;;8.50;96.60;;;;;;5074907;28;20045;-70
2022/02/17 07:18:08;;;;;;;23.77;5.82;;;8.50;96.40;;;;;;5072787;28;20044;-69
2022/02/17 07:20:36;;;;;;;19.35;5.38;;;8.50;96.20;;;;;;5075126;28;20032;-70
2022/02/17 07:23:02;;;;;;;19.48;3.58;;;8.50;96.40;;;;;;5072445;28;20084;-70
2022/02/17 07:25:28;;;;;;;17.02;4.40;;;8.40;95.40;;;;;;5074735;28;20086;-70
2022/02/17 07:27:53;;;;;;;18.17;4.03;;;8.50;95.40;;;;;;5075026;28;20040;-70
2022/02/17 07:30:19;;;;;;;20.02;4.75;;;8.40;95.80;;;;;;5075283;28;20134;-71
2022/02/17 07:32:45;;;;;;;12.50;4.38;;;8.40;96.00;;;;;;5075272;28;20078;-70
2022/02/17 07:35:11;;;;;;;18.33;3.63;;;8.30;96.40;;;;;;5073160;28;20044;-69
2022/02/17 07:37:37;;;;;;;28.38;5.32;;;8.40;96.30;;;;;;5072134;28;20498;-70
2022/02/17 07:40:04;;;;;;;21.65;5.00;;;8.40;96.40;;;;;;5073872;28;20123;-69
2022/02/17 07:42:30;;;;;;;19.00;4.32;;;8.40;96.50;;;;;;5072956;28;20048;-70
2022/02/17 07:44:56;;;;;;;19.98;3.95;;;8.40;96.80;;;;;;5071581;28;20074;-70
2022/02/17 07:47:23;;;;;;;18.08;5.60;;;8.40;96.90;;;;;;5074254;28;20033;-70
2022/02/17 07:49:49;;;;;;;23.05;4.05;;;8.30;97.30;;;;;;5074668;28;20425;-70
2022/02/17 07:52:15;;;;;;;19.15;5.22;;;8.30;97.20;;;;;;5074299;28;20036;-69
2022/02/17 07:54:41;;;;;;;20.63;4.15;;;8.30;97.20;;;;;;5074118;28;20512;-69
2022/02/17 07:57:06;;;;;;;22.90;4.78;;;8.30;97.10;;;;;;5073416;28;20033;-70
2022/02/17 07:59:32;;;;;;;15.05;3.33;;;8.20;97.20;;;;;;5073371;28;20028;-69
2022/02/17 08:01:58;;;;;;;19.25;5.00;;;8.30;97.00;;;;;;5072608;28;20490;-70
2022/02/17 08:04:23;;;;;;;17.17;4.00;;;8.30;96.30;;;;;;5073260;28;20525;-71
2022/02/17 08:06:49;;;;;;;27.52;4.85;;;8.30;96.80;;;;;;5073509;28;20036;-70
2022/02/17 08:09:14;;;;;;;16.27;4.22;;;8.30;96.60;;;;;;5073411;28;20412;-70
2022/02/17 08:11:40;;;;;;;21.55;5.18;;;8.30;96.10;;;;;;5073632;28;20041;-70
2022/02/17 08:14:05;;;;;;;26.23;4.53;;;8.30;95.90;;;;;;5073025;28;20035;-69
2022/02/17 08:16:31;;;;;;;18.95;4.63;;;8.30;96.10;;;;;;5073735;28;20037;-69
2022/02/17 08:18:57;;;;;;;21.75;5.18;;;8.20;96.40;;;;;;5073233;28;20040;-70
2022/02/17 08:21:22;;;;;;;26.58;4.93;;;8.30;96.70;;;;;;5073153;28;20461;-69
2022/02/17 08:23:49;;;;;;;16.75;4.20;;;8.20;96.80;;;;;;5073201;28;20044;-70
2022/02/17 08:26:14;;;;;;;18.30;4.30;;;8.20;96.60;;;;;;5073280;28;20048;-70
2022/02/17 08:28:40;;;;;;;20.10;4.72;;;8.20;96.70;;;;;;5073024;28;20070;-70
2022/02/17 08:31:06;;;;;;;15.63;3.10;;;8.20;96.80;;;;;;5072655;28;20089;-70
2022/02/17 08:33:31;;;;;;;14.38;3.85;;;8.20;96.60;;;;;;5073532;28;20032;-70
2022/02/17 08:35:57;;;;;;;20.73;3.80;;;8.20;96.60;;;;;;5073517;28;20171;-70
2022/02/17 08:38:30;;;;;;;20.90;3.85;;;8.20;97.00;;;;;;5073420;28;20355;-70
2022/02/17 08:40:56;;;;;;;17.90;4.25;;;8.20;97.30;;;;;;5073068;28;20040;-69
2022/02/17 08:43:21;;;;;;;13.55;4.00;;;8.20;97.30;;;;;;5071537;28;20052;-69
2022/02/17 08:45:47;;;;;;;22.48;5.32;;;8.20;97.10;;;;;;5072742;28;20047;-69
2022/02/17 08:48:12;;;;;;;21.45;4.97;;;8.20;96.80;;;;;;5072839;28;20032;-70
2022/02/17 08:50:40;;;;;;;16.38;4.05;;;8.20;96.50;;;;;;5072952;28;20028;-72
2022/02/17 08:53:06;;;;;;;19.75;4.35;;;8.20;96.90;;;;;;5072697;28;20086;-70
2022/02/17 08:55:32;;;;;;;17.98;3.72;;;8.20;96.90;;;;;;5072918;28;20129;-70
2022/02/17 08:57:58;;;;;;;17.83;4.25;;;8.20;97.40;;;;;;5075997;28;20068;-71
2022/02/17 09:00:23;;;;;;;32.95;5.30;;;8.20;97.00;;;;;;5073939;28;20035;-71
2022/02/17 09:02:49;;;;;;;20.80;5.35;;;8.10;97.30;;;;;;5076842;28;20045;-70
2022/02/17 09:05:15;;;;;;;26.52;4.95;;;8.20;97.60;;;;;;5074931;28;20095;-71
2022/02/17 09:07:40;;;;;;;25.95;5.45;;;8.10;98.10;;;;;;5075810;28;20083;-70
2022/02/17 09:10:07;;;;;;;19.00;4.00;;;8.10;98.30;;;;;;5077137;28;20040;-73
2022/02/17 09:12:35;;;;;;;24.23;5.35;;;8.20;98.00;;;;;;5077149;28;20173;-71
2022/02/17 09:15:01;;;;;;;19.80;4.30;;;8.20;97.80;;;;;;5077135;28;20083;-71
2022/02/17 09:17:27;;;;;;;18.85;5.35;;;8.20;98.10;;;;;;5076216;28;20051;-71
2022/02/17 09:19:52;;;;;;;13.27;4.60;;;8.20;97.50;;;;;;5098430;22;20044;-73
2022/02/17 09:22:18;;;;;;;25.10;5.28;;;8.20;96.90;;;;;;5073306;28;20076;-73
2022/02/17 09:24:44;;;;;;;22.63;5.80;;;8.20;96.80;;;;;;5075217;28;20047;-73
2022/02/17 09:27:09;;;;;;;19.25;3.83;;;8.20;97.50;;;;;;5075378;28;20043;-73
2022/02/17 09:29:35;;;;;;;27.95;4.55;;;8.20;97.00;;;;;;5074471;28;20036;-73
2022/02/17 09:32:01;;;;;;;19.17;5.05;;;8.20;96.80;;;;;;5073095;28;20037;-73
2022/02/17 09:34:27;;;;;;;16.95;4.18;;;8.30;96.80;;;;;;5073849;28;20067;-73
2022/02/17 09:36:53;;;;;;;22.13;4.70;;;8.30;97.20;;;;;;5075197;28;20032;-73
2022/02/17 09:39:21;;;;;;;21.92;3.75;;;8.20;97.20;;;;;;5074707;28;20041;-71
2022/02/17 09:41:47;;;;;;;19.13;4.82;;;8.20;97.70;;;;;;5075055;28;20111;-71
2022/02/17 09:44:13;;;;;;;16.88;3.97;;;8.20;97.10;;;;;;5075292;28;20049;-71
2022/02/17 09:46:44;;;;;;;20.40;4.90;;;8.20;97.50;;;;;;5073787;28;20485;-71
2022/02/17 09:49:14;;;;;;;17.90;4.28;;;8.20;97.10;;;;;;5073897;28;20090;-72
2022/02/17 09:51:41;;;;;;;15.68;5.53;;;8.20;97.10;;;;;;5073463;28;20052;-71
2022/02/17 09:54:07;;;;;;;21.08;4.95;;;8.30;96.80;;;;;;5075000;28;20044;-71
2022/02/17 09:56:36;;;;;;;13.93;4.20;;;8.40;96.70;;;;;;5074736;28;20094;-70
2022/02/17 09:59:01;;;;;;;22.40;4.88;;;8.40;96.40;;;;;;5074612;28;20033;-71
2022/02/17 10:01:28;;;;;;;18.50;4.90;;;8.40;96.40;;;;;;5074376;28;20044;-71
2022/02/17 10:04:15;;;;;;;17.92;5.38;;;8.40;96.10;;;;;;5074710;28;20405;-71
2022/02/17 10:06:49;;;;;;;17.38;4.45;;;8.40;95.70;;;;;;5074365;28;20040;-71
2022/02/17 10:09:17;;;;;;;21.75;3.75;;;8.50;95.70;;;;;;5067769;28;20037;-71
2022/02/17 10:11:45;;;;;;;17.35;4.18;;;8.50;95.60;;;;;;5063206;28;20044;-71
2022/02/17 10:14:13;;;;;;;20.92;4.90;;;8.50;96.10;;;;;;5058119;28;20076;-72
2022/02/17 10:16:57;;;;;;;19.13;4.82;;;8.50;95.80;;;;;;5063046;28;20040;-72
2022/02/17 10:19:26;;;;;;;21.63;5.53;;;8.50;96.20;;;;;;5064961;28;20036;-72
2022/02/17 10:22:00;;;;;;;22.10;4.05;;;8.50;95.90;;;;;;5060105;28;20041;-71
2022/02/17 10:24:33;;;;;;;18.52;5.00;;;8.60;95.00;;;;;;5057656;28;20430;-71
2022/02/17 10:27:04;;;;;;;19.27;4.43;;;8.60;95.50;;;;;;5060252;28;20574;-71
2022/02/17 10:29:31;;;;;;;15.68;3.55;;;8.60;94.60;;;;;;5058324;28;20072;-71
2022/02/17 10:32:06;;;;;;;22.17;4.38;;;8.70;94.20;;;;;;5052775;28;20033;-71
2022/02/17 10:34:31;;;;;;;16.35;3.55;;;8.70;94.60;;;;;;5052685;28;20116;-71
2022/02/17 10:36:57;;;;;;;19.40;4.43;;;8.70;94.70;;;;;;5053893;28;20140;-70
2022/02/17 10:39:26;;;;;;;19.45;4.75;;;8.70;94.80;;;;;;5053597;28;20122;-72
2022/02/17 10:42:07;;;;;;;18.17;4.47;;;8.70;94.80;;;;;;5053655;28;20037;-71
2022/02/17 10:44:38;;;;;;;21.55;3.30;;;8.80;94.30;;;;;;5053691;28;20052;-70
2022/02/17 10:47:23;;;;;;;21.38;4.32;;;8.80;93.70;;;;;;5052380;28;20048;-71
2022/02/17 10:49:54;;;;;;;16.52;3.92;;;8.80;93.80;;;;;;5053601;28;20037;-70
2022/02/17 10:52:33;;;;;;;15.98;4.35;;;8.90;94.20;;;;;;5053182;28;20045;-71
2022/02/17 10:55:28;;;;;;;19.52;4.65;;;8.90;94.20;;;;;;5062515;28;20090;-70
2022/02/17 10:57:54;;;;;;;16.95;3.88;;;9.00;94.00;;;;;;5054120;28;20106;-70
2022/02/17 11:00:23;;;;;;;31.08;4.00;;;9.00;94.30;;;;;;5073423;28;20045;-70
2022/02/17 11:02:50;;;;;;;16.35;3.88;;;9.00;94.40;;;;;;5073152;28;20032;-70
2022/02/17 11:05:17;;;;;;;23.75;3.78;;;9.00;94.40;;;;;;5073347;28;20131;-70
2022/02/17 11:07:44;;;;;;;24.88;4.43;;;9.00;93.90;;;;;;5073494;28;20044;-70
2022/02/17 11:10:11;;;;;;;21.90;3.70;;;9.00;93.90;;;;;;5073357;28;20033;-70
2022/02/17 11:12:38;;;;;;;17.95;3.92;;;9.00;93.90;;;;;;5072865;28;20089;-70
2022/02/17 11:15:05;;;;;;;16.13;3.15;;;9.00;94.10;;;;;;5073026;28;20043;-70
2022/02/17 11:17:40;;;;;;;23.33;4.68;;;9.00;94.10;;;;;;5073411;28;20037;-73
2022/02/17 11:20:11;;;;;;;18.05;3.95;;;9.00;93.80;;;;;;5072112;28;20036;-71
2022/02/17 11:22:43;;;;;;;15.52;3.28;;;9.10;92.50;;;;;;5072742;28;20448;-70
2022/02/17 11:25:12;;;;;;;14.90;3.50;;;9.10;93.10;;;;;;5072896;28;20072;-71
2022/02/17 11:27:57;;;;;;;14.27;3.17;;;9.10;93.10;;;;;;5071661;28;20036;-70
2022/02/17 11:30:27;;;;;;;16.02;3.92;;;9.20;93.00;;;;;;5073012;28;20045;-70
2022/02/17 11:33:28;;;;;;;19.90;4.03;;;9.20;93.20;;;;;;5071577;28;20045;-70
2022/02/17 11:36:07;;;;;;;10.48;3.17;;;9.30;92.50;;;;;;5072704;28;20040;-70
2022/02/17 11:38:37;;;;;;;18.85;3.83;;;9.20;92.10;;;;;;5072832;28;20044;-71
2022/02/17 11:41:17;;;;;;;15.38;5.20;;;9.30;92.10;;;;;;5072684;28;20098;-71
2022/02/17 11:43:47;;;;;;;15.98;4.30;;;9.20;91.90;;;;;;5072736;28;20044;-71
2022/02/17 11:46:15;;;;;;;19.50;3.38;;;9.30;92.30;;;;;;5072621;28;20051;-70
2022/02/17 11:48:40;;;;;;;19.65;3.63;;;9.30;92.00;;;;;;5072491;28;20395;-71
2022/02/17 11:51:15;;;;;;;23.70;4.53;;;9.30;91.70;;;;;;5072277;28;20044;-70
2022/02/17 11:53:42;;;;;;;14.38;2.72;;;9.30;91.60;;;;;;5072652;28;20436;-72
2022/02/17 11:56:17;;;;;;;16.52;4.07;;;9.30;91.50;;;;;;5071414;28;20099;-71
2022/02/17 11:58:47;;;;;;;13.73;3.72;;;9.40;91.40;;;;;;5072508;28;20092;-69
2022/02/17 12:01:25;;;;;;;12.27;4.03;;;9.30;91.00;;;;;;5070992;28;20056;-71
2022/02/17 12:04:11;;;;;;;12.32;3.08;;;9.30;91.00;;;;;;5072421;28;20118;-71
2022/02/17 12:06:59;;;;;;;17.80;3.80;;;9.30;91.10;;;;;;5070957;28;20048;-71
2022/02/17 12:12:27;;;;;;;17.73;3.90;;;9.30;92.20;;;;;;5072158;28;20410;-71
2022/02/17 12:15:00;;;;;;;14.23;2.83;;;9.30;91.70;;;;;;5070972;28;20040;-71
2022/02/17 12:17:33;;;;;;;9.40;2.83;;;9.40;91.10;;;;;;5072405;28;20040;-71
2022/02/17 12:20:10;;;;;;;19.85;3.22;;;9.60;91.10;;;;;;5071948;28;20036;-71
2022/02/17 12:22:37;;;;;;;16.25;3.78;;;9.60;91.70;;;;;;5072161;28;20059;-70
2022/02/17 12:25:26;;;;;;;10.20;3.25;;;9.60;91.30;;;;;;5072058;28;20036;-71
2022/02/17 12:28:05;;;;;;;18.17;4.15;;;9.60;91.80;;;;;;5071842;28;20418;-71
2022/02/17 12:30:36;;;;;;;16.75;3.35;;;9.50;91.90;;;;;;5070605;28;20048;-71
2022/02/17 12:33:13;;;;;;;9.60;2.65;;;9.60;91.50;;;;;;5072167;28;20499;-71
2022/02/17 12:35:43;;;;;;;13.48;3.58;;;9.60;90.90;;;;;;5071852;28;20084;-70
2022/02/17 12:38:14;;;;;;;13.30;2.70;;;9.70;90.80;;;;;;5071913;28;20086;-71
2022/02/17 12:40:41;;;;;;;12.88;3.90;;;9.60;90.60;;;;;;5071592;28;20082;-71
2022/02/17 12:43:08;;;;;;;15.00;3.65;;;9.70;90.80;;;;;;5071627;28;20055;-71
2022/02/17 12:45:36;;;;;;;10.93;3.45;;;9.70;91.10;;;;;;5071807;28;20041;-71
2022/02/17 12:48:02;;;;;;;18.58;4.15;;;9.60;91.20;;;;;;5071812;28;20041;-71
2022/02/17 12:50:27;;;;;;;12.32;3.58;;;9.60;90.40;;;;;;5071789;28;20036;-71
2022/02/17 12:52:53;;;;;;;13.45;2.70;;;9.50;90.40;;;;;;5071395;28;20044;-71
2022/02/17 12:55:19;;;;;;;13.85;2.70;;;9.40;90.70;;;;;;5071391;28;20045;-71